Time;durP1;ratioP1;P1;durP2;ratioP2;P2;SDS_P1;SDS_P2;PMS_P1;PMS_P2;Temp;Humidity;BMP_temperature;BMP_pressure;BME280_temperature;BME280_humidity;BME280_pressure;Samples;Min_cycle;Max_cycle;Signal;HPM_P1;HPM_P2
2023/04/09 00:02:18;;;;;;;44.83;24.80;;;;;;;9.20;89.47;102460.16;4989086;28;20026;-83
2023/04/09 00:04:44;;;;;;;49.85;25.42;;;;;;;9.21;89.16;102455.63;4989930;28;20084;-83
2023/04/09 00:07:10;;;;;;;53.03;27.02;;;;;;;9.19;89.82;102454.81;4985693;28;20046;-83
2023/04/09 00:09:36;;;;;;;46.58;26.52;;;;;;;9.12;89.63;102440.56;4990169;28;20043;-83
2023/04/09 00:12:02;;;;;;;49.78;26.35;;;;;;;9.14;89.20;102445.97;4988999;28;20048;-83
2023/04/09 00:14:27;;;;;;;47.42;26.23;;;;;;;9.15;91.00;102437.75;4972134;28;20506;-83
2023/04/09 00:16:53;;;;;;;41.28;24.55;;;;;;;9.14;88.60;102443.25;4972554;28;20038;-83
2023/04/09 00:19:19;;;;;;;45.40;25.73;;;;;;;9.19;89.62;102452.09;4982637;28;20543;-83
2023/04/09 00:21:45;;;;;;;44.15;24.73;;;;;;;9.16;89.65;102444.06;4992741;28;20037;-83
2023/04/09 00:24:10;;;;;;;46.53;24.25;;;;;;;9.14;89.73;102441.41;4998597;28;20034;-83
2023/04/09 00:26:35;;;;;;;43.70;24.60;;;;;;;9.09;90.58;102438.00;4989493;28;20081;-83
2023/04/09 00:29:01;;;;;;;39.08;23.58;;;;;;;9.17;90.01;102445.81;4972063;28;20045;-83
2023/04/09 00:31:26;;;;;;;44.63;23.70;;;;;;;9.16;90.08;102447.66;5006018;28;20247;-83
2023/04/09 00:33:52;;;;;;;39.55;22.63;;;;;;;9.15;89.79;102436.88;5010013;28;20120;-82
2023/04/09 00:36:17;;;;;;;41.03;22.35;;;;;;;9.11;90.21;102435.22;4983559;28;20014;-82
2023/04/09 00:38:42;;;;;;;39.05;22.60;;;;;;;9.13;90.55;102438.75;4981175;28;20036;-83
2023/04/09 00:41:08;;;;;;;39.05;22.17;;;;;;;9.13;91.30;102433.31;5009290;28;20040;-83
2023/04/09 00:43:33;;;;;;;37.72;20.95;;;;;;;9.09;90.36;102429.88;5007349;28;20048;-83
2023/04/09 00:45:59;;;;;;;38.05;22.52;;;;;;;9.12;90.15;102432.44;4977192;28;20062;-83
2023/04/09 00:48:26;;;;;;;37.58;21.65;;;;;;;9.14;90.20;102429.69;4970036;28;20042;-83
2023/04/09 00:50:52;;;;;;;40.05;22.15;;;;;;;9.17;89.59;102438.56;4995129;28;20497;-83
2023/04/09 00:53:17;;;;;;;37.08;20.80;;;;;;;9.01;90.32;102407.56;4991356;28;20064;-83
2023/04/09 00:55:43;;;;;;;34.38;20.02;;;;;;;9.14;90.31;102426.97;4993167;28;20046;-83
2023/04/09 00:58:09;;;;;;;39.08;20.92;;;;;;;9.16;90.38;102433.19;5009097;28;20034;-83
2023/04/09 01:00:34;;;;;;;36.55;21.92;;;;;;;9.16;90.44;102438.63;4987925;28;20132;-83
2023/04/09 01:03:01;;;;;;;34.60;20.65;;;;;;;9.06;90.54;102420.94;4953621;28;20114;-83
2023/04/09 01:05:39;;;;;;;37.50;20.48;;;;;;;9.06;90.31;102418.25;4962726;28;20572;-83
2023/04/09 01:08:20;;;;;;;33.92;20.38;;;;;;;9.10;90.46;102426.19;4989237;28;20041;-83
2023/04/09 01:11:10;;;;;;;35.05;20.23;;;;;;;9.07;90.78;102420.00;4989070;28;20073;-83
2023/04/09 01:13:58;;;;;;;36.88;21.15;;;;;;;9.05;90.77;102420.06;4988864;28;20035;-83
2023/04/09 01:16:24;;;;;;;37.35;20.50;;;;;;;9.03;91.21;102419.22;4990469;28;20044;-83
2023/04/09 01:18:58;;;;;;;38.53;21.80;;;;;;;8.97;90.52;102397.78;4994545;28;20133;-83
2023/04/09 01:21:30;;;;;;;37.95;21.38;;;;;;;9.00;91.83;102405.81;4989325;28;20512;-84
2023/04/09 01:24:33;;;;;;;39.20;21.83;;;;;;;9.02;91.71;102419.31;4988087;28;20343;-83
2023/04/09 01:27:04;;;;;;;41.53;21.58;;;;;;;9.00;91.71;102415.75;4988618;28;20069;-83
2023/04/09 01:29:44;;;;;;;38.15;21.17;;;;;;;8.96;91.79;102403.28;4968588;28;20058;-83
2023/04/09 01:32:10;;;;;;;37.90;21.05;;;;;;;8.96;91.69;102411.41;4968596;28;20554;-82
2023/04/09 01:34:37;;;;;;;36.83;20.58;;;;;;;8.94;91.90;102409.63;4968598;28;20039;-83
2023/04/09 01:37:04;;;;;;;37.67;22.27;;;;;;;8.95;92.08;102413.22;5007726;28;20041;-83
2023/04/09 01:39:30;;;;;;;38.60;21.52;;;;;;;8.92;91.48;102406.09;5007847;28;20061;-84
2023/04/09 01:41:56;;;;;;;42.15;22.65;;;;;;;8.92;92.38;102414.25;4991424;28;20072;-83
2023/04/09 01:44:23;;;;;;;43.95;22.38;;;;;;;8.88;92.36;102401.75;4972286;28;20045;-83
2023/04/09 01:46:50;;;;;;;41.58;23.85;;;;;;;8.83;92.87;102395.63;5003936;28;20368;-83
2023/04/09 01:49:17;;;;;;;41.22;23.17;;;;;;;8.87;92.37;102402.69;4972148;28;20498;-83
2023/04/09 01:51:43;;;;;;;47.63;24.70;;;;;;;8.84;92.99;102399.22;4972762;28;20034;-83
2023/04/09 01:54:08;;;;;;;38.15;21.48;;;;;;;8.85;92.73;102400.97;4972938;28;20486;-83
2023/04/09 01:56:44;;;;;;;41.53;23.42;;;;;;;8.86;92.91;102400.03;4988602;28;20032;-84
2023/04/09 01:59:10;;;;;;;46.80;24.38;;;;;;;8.85;92.98;102403.69;4987127;28;20467;-83
2023/04/09 02:01:46;;;;;;;39.63;23.50;;;;;;;8.84;92.89;102402.81;4987661;28;20035;-83
2023/04/09 02:04:21;;;;;;;42.42;22.70;;;;;;;8.85;93.50;102407.28;4989565;28;20041;-83
2023/04/09 02:07:07;;;;;;;41.60;22.25;;;;;;;8.85;93.02;102414.53;4975336;28;20034;-83
2023/04/09 02:09:36;;;;;;;40.90;22.30;;;;;;;8.82;93.24;102406.53;4981927;28;20129;-83
2023/04/09 02:12:05;;;;;;;41.70;22.30;;;;;;;8.83;93.13;102411.91;4971365;28;20410;-83
2023/04/09 02:14:32;;;;;;;45.33;23.35;;;;;;;8.84;93.25;102404.63;4974172;28;20045;-83
2023/04/09 02:17:00;;;;;;;45.63;24.00;;;;;;;8.83;93.58;102411.91;4987332;28;20136;-83
2023/04/09 02:19:38;;;;;;;42.42;23.90;;;;;;;8.85;93.27;102407.28;4971791;28;20498;-83
2023/04/09 02:22:04;;;;;;;42.17;23.17;;;;;;;8.83;93.46;102411.03;4976983;28;20050;-83
2023/04/09 02:24:29;;;;;;;46.72;23.90;;;;;;;8.77;93.70;102395.88;4996732;28;20119;-84
2023/04/09 02:26:55;;;;;;;43.92;23.00;;;;;;;8.77;93.62;102387.75;4988567;28;20048;-83
2023/04/09 02:29:20;;;;;;;41.50;22.63;;;;;;;8.76;94.33;102398.63;5004078;28;20120;-84
2023/04/09 02:31:45;;;;;;;44.78;23.10;;;;;;;8.74;93.45;102390.56;4974121;28;20112;-83
2023/04/09 02:34:11;;;;;;;42.60;22.15;;;;;;;8.72;94.58;102387.03;5003853;28;20581;-83
2023/04/09 02:36:38;;;;;;;47.40;24.60;;;;;;;8.71;94.77;102387.06;4996105;28;20456;-83
2023/04/09 02:39:03;;;;;;;43.85;23.48;;;;;;;8.73;94.85;102390.63;5009517;28;20044;-83
2023/04/09 02:41:28;;;;;;;43.15;23.33;;;;;;;8.69;94.47;102384.44;4984526;28;20128;-83
2023/04/09 02:43:54;;;;;;;45.55;23.77;;;;;;;8.72;94.80;102394.25;5004900;28;20496;-83
2023/04/09 02:46:19;;;;;;;41.08;23.77;;;;;;;8.71;94.60;102389.78;4976577;28;20474;-83
2023/04/09 02:48:45;;;;;;;45.60;23.70;;;;;;;8.73;94.85;102396.06;4975413;28;20042;-83
2023/04/09 02:51:10;;;;;;;41.78;23.52;;;;;;;8.70;94.86;102386.19;4977826;28;20041;-83
2023/04/09 02:53:39;;;;;;;46.60;26.67;;;;;;;8.66;95.08;102377.28;5006064;28;20034;-83
2023/04/09 02:56:05;;;;;;;45.53;23.80;;;;;;;8.67;94.89;102383.59;4991678;28;20126;-83
2023/04/09 02:58:30;;;;;;;49.42;25.35;;;;;;;8.66;94.87;102376.41;4975850;28;20034;-83
2023/04/09 03:00:56;;;;;;;42.85;23.77;;;;;;;8.64;94.91;102378.31;5002755;28;20185;-83
2023/04/09 03:03:21;;;;;;;42.90;23.67;;;;;;;8.65;95.27;102374.66;5010594;28;20120;-83
2023/04/09 03:05:46;;;;;;;45.88;24.92;;;;;;;8.65;95.54;102375.53;5011079;28;20038;-83
2023/04/09 03:08:12;;;;;;;46.33;24.15;;;;;;;8.61;95.01;102371.16;4992427;28;20107;-84
2023/04/09 03:10:37;;;;;;;46.10;24.55;;;;;;;8.65;95.66;102377.34;4990861;28;20056;-83
2023/04/09 03:13:03;;;;;;;50.63;24.95;;;;;;;8.62;95.54;102370.22;5009922;28;20022;-83
2023/04/09 03:15:28;;;;;;;41.33;23.30;;;;;;;8.61;95.25;102371.16;4999483;28;20026;-83
2023/04/09 03:17:53;;;;;;;52.13;25.15;;;;;;;8.59;95.61;102362.22;4987513;28;20089;-84
2023/04/09 03:20:19;;;;;;;56.58;28.80;;;;;;;8.63;95.35;102371.13;4985604;28;20087;-84
2023/04/09 03:22:45;;;;;;;54.95;27.38;;;;;;;8.60;95.73;102363.97;4972703;28;20396;-84
2023/04/09 03:25:37;;;;;;;51.75;27.38;;;;;;;8.54;95.84;102357.94;4975318;28;20042;-83
2023/04/09 03:28:10;;;;;;;48.55;25.02;;;;;;;8.59;95.31;102372.19;4992436;28;20109;-83
2023/04/09 03:30:40;;;;;;;50.75;25.83;;;;;;;8.56;95.60;102365.03;4984565;28;20034;-83
2023/04/09 03:33:05;;;;;;;46.33;25.27;;;;;;;8.60;95.14;102369.41;5010792;28;20088;-83
2023/04/09 03:35:35;;;;;;;56.70;26.25;;;;;;;8.59;94.90;102362.22;4995864;28;20038;-83
2023/04/09 03:38:01;;;;;;;49.25;25.02;;;;;;;8.59;95.40;102351.38;4991042;28;20120;-83
2023/04/09 03:40:27;;;;;;;50.28;24.42;;;;;;;8.59;94.72;102354.09;4990250;28;20526;-83
2023/04/09 03:42:52;;;;;;;55.63;27.27;;;;;;;8.65;95.54;102355.66;4973857;28;20038;-83
2023/04/09 03:45:18;;;;;;;50.67;27.35;;;;;;;8.65;95.42;102363.78;4982110;28;20037;-83
2023/04/09 03:47:46;;;;;;;60.55;28.67;;;;;;;8.57;95.43;102346.94;4976660;28;20035;-83
2023/04/09 03:50:12;;;;;;;58.08;28.00;;;;;;;8.64;95.42;102364.75;4970834;28;20061;-83
2023/04/09 03:52:46;;;;;;;58.53;28.70;;;;;;;8.55;95.18;102340.69;4956276;28;20483;-83
2023/04/09 03:55:11;;;;;;;58.00;27.35;;;;;;;8.56;95.61;102343.34;4989762;28;20050;-83
2023/04/09 03:57:37;;;;;;;62.22;28.55;;;;;;;8.54;95.75;102347.97;4988691;28;20061;-83
2023/04/09 04:00:05;;;;;;;60.65;28.67;;;;;;;8.52;96.11;102348.94;4995847;28;20476;-83
2023/04/09 04:02:48;;;;;;;63.28;29.05;;;;;;;8.54;95.39;102360.63;5003737;28;20414;-84
2023/04/09 04:05:15;;;;;;;60.85;27.60;;;;;;;8.45;95.30;102352.88;4974374;28;20038;-83
2023/04/09 04:07:45;;;;;;;59.47;28.88;;;;;;;8.45;94.63;102353.75;4990466;28;20034;-84
2023/04/09 04:10:15;;;;;;;53.80;28.00;;;;;;;8.39;94.60;102349.44;5008075;28;20485;-84
2023/04/09 04:12:44;;;;;;;53.42;27.30;;;;;;;8.35;94.73;102349.59;5010428;28;20030;-85
2023/04/09 04:15:14;;;;;;;58.25;28.83;;;;;;;8.32;94.84;102349.72;4981270;28;20545;-85
2023/04/09 04:17:46;;;;;;;59.05;28.73;;;;;;;8.28;94.62;102350.75;4971134;28;20030;-83
2023/04/09 04:20:21;;;;;;;52.53;28.27;;;;;;;8.27;94.38;102357.13;4986605;28;20495;-82
2023/04/09 04:22:56;;;;;;;54.97;26.48;;;;;;;8.24;94.28;102359.97;4987406;28;20386;-83
2023/04/09 04:25:22;;;;;;;51.90;25.45;;;;;;;8.25;93.54;102361.72;4982822;28;20042;-83
2023/04/09 04:27:49;;;;;;;52.13;27.70;;;;;;;8.19;93.92;102355.59;4988708;28;20394;-82
2023/04/09 04:30:17;;;;;;;54.00;26.02;;;;;;;8.16;94.25;102347.59;4972702;28;20030;-83
2023/04/09 04:32:54;;;;;;;54.40;25.55;;;;;;;8.12;93.46;102345.94;4976704;28;20041;-83
2023/04/09 04:35:20;;;;;;;52.90;26.20;;;;;;;8.14;94.05;102359.44;4972335;28;20030;-83
2023/04/09 04:37:50;;;;;;;52.92;23.95;;;;;;;8.06;93.71;102348.84;4971405;28;20041;-82
2023/04/09 04:40:16;;;;;;;45.10;23.67;;;;;;;8.05;93.32;102357.94;4978715;28;20462;-83
2023/04/09 04:42:43;;;;;;;49.33;24.15;;;;;;;8.00;93.48;102348.22;4992851;28;20030;-84
2023/04/09 04:45:12;;;;;;;51.45;23.60;;;;;;;7.98;93.57;102359.13;5001199;28;20405;-82
2023/04/09 04:47:43;;;;;;;54.00;25.25;;;;;;;7.94;94.36;102354.75;4987856;28;20030;-83
2023/04/09 04:50:09;;;;;;;48.03;24.00;;;;;;;7.90;94.15;102353.09;4967668;28;20045;-82
2023/04/09 04:52:47;;;;;;;51.42;24.75;;;;;;;7.88;94.27;102357.69;4976072;28;20113;-82
2023/04/09 04:55:13;;;;;;;46.63;23.33;;;;;;;7.85;94.01;102360.53;4987348;28;20462;-82
2023/04/09 04:57:38;;;;;;;50.60;23.17;;;;;;;7.82;93.18;102363.34;4971200;28;20041;-82
2023/04/09 05:00:05;;;;;;;49.13;24.60;;;;;;;7.71;93.54;102360.13;4970840;28;20029;-83
2023/04/09 05:02:31;;;;;;;47.20;23.30;;;;;;;7.66;93.36;102358.47;4971622;28;20036;-83
2023/04/09 05:05:15;;;;;;;51.72;23.70;;;;;;;7.54;93.17;102360.72;4987962;28;20088;-82
2023/04/09 05:07:47;;;;;;;47.00;23.40;;;;;;;7.42;93.55;102359.34;4988773;28;20418;-83
2023/04/09 05:10:13;;;;;;;49.05;23.33;;;;;;;7.34;93.60;102361.44;4974072;28;20034;-83
2023/04/09 05:12:41;;;;;;;51.33;24.77;;;;;;;7.24;93.78;102355.47;4992947;28;20392;-83
2023/04/09 05:15:07;;;;;;;47.72;21.77;;;;;;;7.20;93.99;102355.63;4987027;28;20479;-82
2023/04/09 05:17:34;;;;;;;50.83;22.98;;;;;;;7.19;94.48;102354.72;4975668;28;20617;-83
2023/04/09 05:20:00;;;;;;;47.92;22.98;;;;;;;7.18;94.42;102355.69;4988034;28;20117;-83
2023/04/09 05:22:35;;;;;;;42.58;21.58;;;;;;;7.24;93.87;102360.00;4977686;28;20034;-82
2023/04/09 05:25:01;;;;;;;50.72;22.70;;;;;;;7.22;93.80;102357.31;4968600;28;20414;-82
2023/04/09 05:27:27;;;;;;;47.47;22.35;;;;;;;7.20;93.82;102361.03;4988470;28;20050;-82
2023/04/09 05:29:57;;;;;;;47.72;22.15;;;;;;;7.21;93.32;102352.84;4988683;28;20029;-82
2023/04/09 05:32:22;;;;;;;46.00;22.70;;;;;;;7.20;94.09;102359.22;4970895;28;20042;-83
2023/04/09 05:34:48;;;;;;;48.33;22.85;;;;;;;7.19;94.16;102368.28;4971164;28;20060;-83
2023/04/09 05:37:14;;;;;;;44.90;23.05;;;;;;;7.20;94.03;102355.63;4972051;28;20109;-83
2023/04/09 05:39:43;;;;;;;44.67;23.90;;;;;;;7.19;93.89;102360.16;4987236;28;20470;-81
2023/04/09 05:42:09;;;;;;;46.83;22.80;;;;;;;7.19;94.32;102368.28;4987324;28;20034;-81
2023/04/09 05:44:58;;;;;;;52.33;23.90;;;;;;;7.17;93.99;102362.00;4968963;28;20038;-82
2023/04/09 05:47:23;;;;;;;47.90;22.48;;;;;;;7.41;93.91;102363.91;4987099;28;20026;-81
2023/04/09 05:50:00;;;;;;;48.63;22.40;;;;;;;7.60;92.69;102353.28;4987211;28;20030;-83
2023/04/09 05:52:26;;;;;;;47.70;22.58;;;;;;;7.61;92.35;102359.59;4986866;28;20064;-84
2023/04/09 05:54:52;;;;;;;49.40;23.67;;;;;;;7.54;92.60;102360.72;4983555;28;20072;-83
2023/04/09 05:57:23;;;;;;;46.22;22.20;;;;;;;7.57;92.73;102364.22;4971405;28;20041;-83
2023/04/09 05:59:56;;;;;;;46.85;23.92;;;;;;;7.68;91.72;102367.41;5005442;28;20088;-83
2023/04/09 06:02:23;;;;;;;49.03;22.15;;;;;;;7.66;91.98;102355.78;5008379;28;20033;-83
2023/04/09 06:04:49;;;;;;;51.72;23.60;;;;;;;7.71;91.77;102373.69;4991594;28;20034;-83
2023/04/09 06:07:15;;;;;;;41.88;22.15;;;;;;;7.68;91.72;102374.66;4990037;28;20092;-83
2023/04/09 06:09:43;;;;;;;48.97;24.10;;;;;;;7.63;91.62;102363.13;4987526;28;20553;-83
2023/04/09 06:12:09;;;;;;;48.22;23.80;;;;;;;7.66;91.20;102381.97;5011749;28;20492;-83
2023/04/09 06:14:34;;;;;;;47.53;23.27;;;;;;;7.65;91.61;102380.22;4990899;28;20038;-82
2023/04/09 06:17:00;;;;;;;51.95;23.13;;;;;;;7.70;91.46;102366.50;4974647;28;20056;-83
2023/04/09 06:19:25;;;;;;;51.85;23.95;;;;;;;7.62;91.61;102366.78;4992833;28;20029;-83
2023/04/09 06:21:51;;;;;;;50.97;23.33;;;;;;;7.68;91.73;102378.25;5008240;28;20121;-83
2023/04/09 06:24:16;;;;;;;48.53;23.55;;;;;;;7.62;91.50;102364.94;4974941;28;20500;-84
2023/04/09 06:26:41;;;;;;;47.30;22.85;;;;;;;7.68;91.31;102370.13;4991164;28;20034;-83
2023/04/09 06:29:07;;;;;;;44.97;22.92;;;;;;;8.05;91.11;102382.34;4974365;28;20026;-83
2023/04/09 06:31:33;;;;;;;47.63;23.85;;;;;;;8.23;89.04;102382.59;4990976;28;20042;-83
2023/04/09 06:33:58;;;;;;;53.42;24.27;;;;;;;8.35;88.77;102377.59;4991356;28;20082;-84
2023/04/09 06:36:24;;;;;;;46.95;24.58;;;;;;;8.34;87.43;102377.63;4991350;28;20474;-84
2023/04/09 06:38:49;;;;;;;53.58;24.73;;;;;;;8.39;88.47;102379.28;4975031;28;20034;-82
2023/04/09 06:41:15;;;;;;;47.70;24.17;;;;;;;8.81;86.84;102381.25;4975013;28;20034;-82
2023/04/09 06:43:40;;;;;;;47.25;23.70;;;;;;;9.08;85.25;102379.19;4993481;28;20038;-81
2023/04/09 06:46:09;;;;;;;41.72;22.30;;;;;;;8.94;84.71;102382.47;4992199;28;20065;-82
2023/04/09 06:48:34;;;;;;;43.20;22.88;;;;;;;8.76;85.82;102385.94;5011565;28;20033;-82
2023/04/09 06:51:00;;;;;;;45.33;23.77;;;;;;;8.68;86.65;102390.81;5010543;28;20080;-82
2023/04/09 06:53:25;;;;;;;45.88;23.88;;;;;;;8.91;86.75;102393.50;4991633;28;20450;-82
2023/04/09 06:55:50;;;;;;;44.83;23.90;;;;;;;9.15;85.99;102396.13;4990882;28;20074;-83
2023/04/09 06:58:16;;;;;;;43.63;23.90;;;;;;;9.25;84.83;102399.34;4990559;28;20545;-83
2023/04/09 07:00:41;;;;;;;43.10;22.55;;;;;;;9.37;84.93;102398.81;4983023;28;20069;-82
2023/04/09 07:03:07;;;;;;;45.78;22.88;;;;;;;9.77;83.72;102391.66;5010281;28;20091;-83
2023/04/09 07:05:33;;;;;;;48.30;23.17;;;;;;;10.30;82.05;102397.41;5010153;28;20034;-83
2023/04/09 07:07:59;;;;;;;43.97;22.40;;;;;;;10.71;80.09;102391.84;4963415;28;20030;-82
2023/04/09 07:10:24;;;;;;;44.83;24.48;;;;;;;10.95;79.14;102395.22;4976686;28;20109;-84
2023/04/09 07:12:49;;;;;;;39.53;23.42;;;;;;;11.40;77.44;102388.44;4982625;28;20043;-83
2023/04/09 07:15:15;;;;;;;41.88;23.60;;;;;;;11.52;75.17;102393.25;4986796;28;20535;-84
2023/04/09 07:17:40;;;;;;;42.08;24.08;;;;;;;11.25;76.17;102392.81;4982792;28;20039;-84
2023/04/09 07:20:06;;;;;;;43.97;24.63;;;;;;;11.06;77.39;102402.88;4970657;28;20053;-83
2023/04/09 07:22:32;;;;;;;42.90;23.13;;;;;;;11.31;76.51;102389.78;4968466;28;20043;-82
2023/04/09 07:24:57;;;;;;;41.47;23.13;;;;;;;11.48;76.87;102397.09;4986258;28;20061;-83
2023/04/09 07:27:24;;;;;;;42.92;25.08;;;;;;;11.39;75.98;102405.75;4963841;28;20117;-83
2023/04/09 07:29:50;;;;;;;46.15;24.60;;;;;;;11.40;75.01;102408.38;4985651;28;20034;-82
2023/04/09 07:32:15;;;;;;;44.47;25.10;;;;;;;11.45;76.10;102402.69;4979251;28;20052;-82
2023/04/09 07:34:43;;;;;;;49.75;26.65;;;;;;;11.49;77.82;102394.28;4985872;28;20118;-84
2023/04/09 07:37:08;;;;;;;44.00;25.98;;;;;;;11.54;77.86;102398.63;4994798;28;20038;-83
2023/04/09 07:39:34;;;;;;;47.28;26.00;;;;;;;11.54;77.22;102402.22;4963969;28;20038;-84
2023/04/09 07:42:03;;;;;;;41.97;24.70;;;;;;;11.84;77.77;102396.16;4986874;28;20146;-83
2023/04/09 07:44:29;;;;;;;42.83;26.60;;;;;;;12.06;76.63;102399.50;4991414;28;20497;-83
2023/04/09 07:46:54;;;;;;;42.17;25.80;;;;;;;12.43;76.38;102392.03;4993264;28;20030;-82
2023/04/09 07:49:20;;;;;;;50.13;25.42;;;;;;;12.61;75.46;102390.16;4987190;28;20434;-83
2023/04/09 07:51:46;;;;;;;42.22;25.52;;;;;;;12.42;72.20;102393.91;4983684;28;20088;-82
2023/04/09 07:54:11;;;;;;;48.00;28.02;;;;;;;12.17;74.08;102388.00;4968545;28;20515;-83
2023/04/09 07:56:37;;;;;;;49.20;27.15;;;;;;;12.05;75.69;102385.97;4983073;28;20426;-84
2023/04/09 07:59:02;;;;;;;45.42;26.95;;;;;;;12.13;74.91;102390.03;4969833;28;20042;-83
2023/04/09 08:01:27;;;;;;;43.78;26.52;;;;;;;12.28;75.24;102391.06;4980301;28;20092;-84
2023/04/09 08:03:53;;;;;;;48.50;26.80;;;;;;;12.48;74.23;102401.72;4993337;28;20049;-83
2023/04/09 08:06:18;;;;;;;45.53;27.27;;;;;;;12.55;73.21;102394.09;4996677;28;20096;-83
2023/04/09 08:08:44;;;;;;;48.92;28.60;;;;;;;12.48;73.09;102398.13;4988199;28;20049;-82
2023/04/09 08:11:09;;;;;;;43.42;26.00;;;;;;;12.61;73.47;102387.41;4972849;28;20076;-83
2023/04/09 08:13:34;;;;;;;47.88;27.80;;;;;;;12.54;72.83;102394.16;4990491;28;20045;-84
2023/04/09 08:16:01;;;;;;;46.75;27.00;;;;;;;12.52;74.96;102391.53;4978724;28;20125;-83
2023/04/09 08:18:26;;;;;;;44.83;27.40;;;;;;;12.70;73.59;102384.16;4989087;28;20635;-83
2023/04/09 08:20:52;;;;;;;47.17;29.05;;;;;;;12.55;72.69;102394.09;4973171;28;20044;-84
2023/04/09 08:23:17;;;;;;;46.22;27.20;;;;;;;12.50;74.29;102398.94;4988879;28;20027;-83
2023/04/09 08:25:43;;;;;;;47.67;28.83;;;;;;;12.34;73.77;102387.97;4990592;28;20082;-83
2023/04/09 08:28:08;;;;;;;44.50;27.02;;;;;;;12.14;72.89;102400.00;4991188;28;20040;-83
2023/04/09 08:30:33;;;;;;;46.45;27.48;;;;;;;12.14;73.56;102396.38;4989828;28;20033;-83
2023/04/09 08:33:00;;;;;;;46.28;28.40;;;;;;;12.11;73.39;102400.13;5007334;28;20096;-83
2023/04/09 08:35:27;;;;;;;48.60;28.83;;;;;;;12.08;73.83;102392.16;5008176;28;20123;-82
2023/04/09 08:37:55;;;;;;;50.33;28.95;;;;;;;12.20;74.69;102393.31;5004959;28;20070;-84
2023/04/09 08:40:20;;;;;;;46.33;27.88;;;;;;;12.16;74.34;102397.16;4989371;28;20045;-82
2023/04/09 08:42:53;;;;;;;47.03;28.15;;;;;;;12.13;73.45;102397.34;4974805;28;20366;-82
2023/04/09 08:45:19;;;;;;;48.90;26.50;;;;;;;12.19;74.93;102391.56;4996397;28;20160;-82
2023/04/09 08:47:46;;;;;;;49.80;28.15;;;;;;;12.30;72.81;102386.38;4972818;28;20056;-83
2023/04/09 08:50:13;;;;;;;51.22;29.98;;;;;;;12.46;75.49;102389.16;4988978;28;20042;-83
2023/04/09 08:52:39;;;;;;;48.50;29.40;;;;;;;12.73;76.17;102393.06;4972815;28;20058;-83
2023/04/09 08:55:06;;;;;;;46.55;28.35;;;;;;;12.92;73.43;102392.91;4986204;28;20056;-84
2023/04/09 08:57:39;;;;;;;53.50;30.30;;;;;;;12.70;72.20;102386.91;5000129;28;20034;-83
2023/04/09 09:00:06;;;;;;;48.58;28.63;;;;;;;12.55;73.51;102391.38;4975740;28;20041;-84
2023/04/09 09:02:31;;;;;;;50.72;29.38;;;;;;;12.41;72.20;102385.81;4991655;28;20060;-83
2023/04/09 09:04:59;;;;;;;46.22;29.05;;;;;;;12.29;74.13;102381.00;4976162;28;20038;-83
2023/04/09 09:07:27;;;;;;;50.85;30.00;;;;;;;12.36;73.82;102391.53;4981176;28;20502;-84
2023/04/09 09:10:03;;;;;;;50.58;29.13;;;;;;;12.41;74.76;102388.53;4990607;28;20133;-84
2023/04/09 09:12:35;;;;;;;52.85;29.48;;;;;;;12.59;74.39;102390.25;4988546;28;20042;-84
2023/04/09 09:15:01;;;;;;;;;;;;;;;12.84;76.02;102384.25;4971692;28;20398;-84
2023/04/09 09:17:26;;;;;;;50.03;28.15;;;;;;;13.14;74.89;102391.63;4955312;28;19927;-83
2023/04/09 09:19:52;;;;;;;50.72;29.00;;;;;;;13.28;73.01;102384.41;4985905;28;20042;-85
2023/04/09 09:22:17;;;;;;;52.58;29.90;;;;;;;13.50;74.17;102394.06;4995304;28;20401;-83
2023/04/09 09:24:48;;;;;;;46.38;29.50;;;;;;;13.49;71.13;102382.25;4988078;28;20034;-83
2023/04/09 09:27:39;;;;;;;51.47;31.33;;;;;;;13.90;72.76;102384.34;4988386;28;20038;-83
2023/04/09 09:30:05;;;;;;;52.28;30.20;;;;;;;14.17;67.86;102381.72;4991041;28;20044;-83
2023/04/09 09:32:32;;;;;;;48.28;28.48;;;;;;;13.97;66.76;102374.75;5007860;28;20057;-83
2023/04/09 09:35:07;;;;;;;52.90;30.23;;;;;;;13.87;70.05;102368.09;5007355;28;20072;-85
2023/04/09 09:37:33;;;;;;;49.83;29.85;;;;;;;14.22;72.03;102365.00;5008467;28;20038;-85
2023/04/09 09:39:59;;;;;;;45.38;29.98;;;;;;;14.49;68.67;102365.13;4979139;28;20030;-84
2023/04/09 09:42:26;;;;;;;48.55;29.80;;;;;;;14.49;68.53;102359.66;4993185;28;20120;-83
2023/04/09 09:44:52;;;;;;;51.65;30.55;;;;;;;14.84;69.87;102375.66;4991319;28;20053;-84
2023/04/09 09:47:18;;;;;;;48.05;28.95;;;;;;;14.68;65.46;102362.94;4975581;28;20137;-85
2023/04/09 09:49:45;;;;;;;43.10;27.05;;;;;;;14.66;67.01;102353.97;4992022;28;20073;-84
2023/04/09 09:52:10;;;;;;;45.42;26.67;;;;;;;15.21;69.63;102357.63;4998227;28;20064;-83
2023/04/09 09:54:41;;;;;;;49.00;29.70;;;;;;;15.34;66.45;102347.59;4994630;28;20497;-85
2023/04/09 09:57:12;;;;;;;43.80;28.27;;;;;;;15.48;66.29;102339.28;5011907;28;20030;-83
2023/04/09 09:59:42;;;;;;;49.28;29.33;;;;;;;15.44;64.60;102339.59;5009428;28;20087;-85
2023/04/09 10:02:22;;;;;;;44.28;27.38;;;;;;;15.67;69.29;102338.03;4994835;28;20357;-84
2023/04/09 10:04:49;;;;;;;41.92;27.80;;;;;;;15.82;64.34;102337.81;5011340;28;20050;-84
2023/04/09 10:07:15;;;;;;;43.47;26.75;;;;;;;15.90;64.26;102341.88;5003529;28;20030;-85
2023/04/09 10:09:47;;;;;;;46.22;25.75;;;;;;;15.85;62.93;102341.31;5003766;28;20049;-83
2023/04/09 10:12:13;;;;;;;42.25;25.20;;;;;;;16.14;61.45;102334.66;5006428;28;20121;-83
2023/04/09 10:14:39;;;;;;;37.08;24.80;;;;;;;16.37;61.63;102334.81;4990286;28;20122;-84
2023/04/09 10:17:05;;;;;;;38.33;24.95;;;;;;;16.54;60.76;102332.59;4992255;28;20089;-84
2023/04/09 10:19:37;;;;;;;38.42;24.83;;;;;;;16.70;58.02;102331.47;4975474;28;20038;-85
2023/04/09 10:22:11;;;;;;;37.88;24.25;;;;;;;16.94;62.78;102326.91;4976373;28;20034;-85
2023/04/09 10:24:37;;;;;;;38.03;24.83;;;;;;;16.59;57.57;102318.50;4991749;28;20034;-85
2023/04/09 10:27:14;;;;;;;34.65;21.90;;;;;;;16.28;58.38;102319.91;4991759;28;20065;-85
2023/04/09 10:29:45;;;;;;;31.77;21.08;;;;;;;15.73;57.31;102315.63;5007767;28;20459;-84
2023/04/09 10:32:11;;;;;;;29.15;20.45;;;;;;;15.89;61.34;102312.66;4991116;28;20038;-84
2023/04/09 10:34:42;;;;;;;36.30;23.33;;;;;;;15.80;60.27;102314.19;4991824;28;20045;-84
2023/04/09 10:37:09;;;;;;;32.78;22.45;;;;;;;15.38;59.06;102302.47;4989225;28;20038;-85
2023/04/09 10:39:43;;;;;;;33.75;22.65;;;;;;;15.29;63.03;102305.84;4991511;28;20129;-85
2023/04/09 10:42:40;;;;;;;36.17;23.70;;;;;;;15.72;64.55;102301.03;4991914;28;20093;-85
2023/04/09 10:45:10;;;;;;;31.95;21.13;;;;;;;15.92;59.71;102298.75;4994240;28;20144;-84
2023/04/09 10:47:38;;;;;;;24.80;17.45;;;;;;;15.76;59.67;102302.59;5011139;28;20034;-85
2023/04/09 10:50:16;;;;;;;27.35;17.58;;;;;;;15.76;57.78;102294.34;5008033;28;20042;-84
2023/04/09 10:52:43;;;;;;;27.20;18.20;;;;;;;15.80;58.86;102290.38;5006866;28;20509;-85
2023/04/09 10:55:19;;;;;;;26.67;17.83;;;;;;;15.84;57.05;102287.44;4991235;28;20124;-84
2023/04/09 10:57:44;;;;;;;27.00;19.23;;;;;;;15.77;58.06;102285.13;4990891;28;20450;-85
2023/04/09 11:00:10;;;;;;;28.08;17.85;;;;;;;16.02;60.79;102284.22;4988208;28;20038;-84
2023/04/09 11:02:47;;;;;;;29.63;18.67;;;;;;;15.94;56.59;102285.78;4972519;28;20519;-84
2023/04/09 11:05:31;;;;;;;22.55;16.42;;;;;;;15.97;58.44;102283.69;4955645;28;20038;-84
2023/04/09 11:08:11;;;;;;;27.08;17.45;;;;;;;15.90;57.91;102276.00;4955508;28;20928;-85
2023/04/09 11:10:42;;;;;;;23.00;16.88;;;;;;;16.26;58.30;102272.44;4987767;28;20089;-83
2023/04/09 11:13:12;;;;;;;26.40;16.02;;;;;;;16.84;58.93;102268.13;4990678;28;20424;-85
2023/04/09 11:15:38;;;;;;;23.83;16.48;;;;;;;17.47;57.20;102274.22;4991404;28;20034;-86
2023/04/09 11:18:05;;;;;;;19.73;14.40;;;;;;;17.50;52.60;102272.13;4990988;28;20043;-88
2023/04/09 11:20:33;;;;;;;22.33;15.20;;;;;;;17.39;52.11;102266.56;4991285;28;20439;-84